Impacts TAF Board
For situational awareness. Not to be used for flight planning purposes.
IDs:

KPHX - Phoenix/Sky Harbor, AZ, US

Issued at 2031 UTC 19 Jan 2019
Updated at 2217 UTC 19 Jan 2019
Potential Impact None Slight Moderate High
Time<<20/23Z 21/00Z 21/01Z 21/02Z 21/03Z 21/04Z 21/05Z 21/06Z 21/07Z 21/08Z 21/09Z 21/10Z 21/11Z
Type PRVL
VIS >6
CIG 250
Cover BKN
FltCat VFR
WX --
WDir 270
WSpd 3
WGst --
Raw TAF
KPHX 192031Z 1921/2024 35003KT P6SM SCT250
  FM192300 29004KT P6SM SCT250
  FM200500 08004KT P6SM BKN250
  FM202300 27003KT P6SM BKN250


METAR Board
Radar Display
Forecast Discussion
For situational awareness. Not to be used for flight planning purposes.